sensor_id;sensor_type;location;lat;lon;timestamp;pressure;altitude;pressure_sealevel;temperature;humidity
59493;BME280;45497;43.996;22.876;2022-09-29T00:01:03;100077.66;;;18.80;60.86
59493;BME280;45497;43.996;22.876;2022-09-29T00:03:28;100072.22;;;18.75;61.05
59493;BME280;45497;43.996;22.876;2022-09-29T00:06:51;100074.06;;;18.74;61.10
59493;BME280;45497;43.996;22.876;2022-09-29T00:09:16;100084.00;;;18.73;61.07
59493;BME280;45497;43.996;22.876;2022-09-29T00:11:42;100081.78;;;18.70;61.13
59493;BME280;45497;43.996;22.876;2022-09-29T00:17:44;100072.56;;;18.66;60.58
59493;BME280;45497;43.996;22.876;2022-09-29T00:20:10;100073.88;;;18.64;60.43
59493;BME280;45497;43.996;22.876;2022-09-29T00:22:35;100080.75;;;18.60;60.51
59493;BME280;45497;43.996;22.876;2022-09-29T00:25:00;100075.97;;;18.62;60.59
59493;BME280;45497;43.996;22.876;2022-09-29T00:27:26;100067.56;;;18.58;60.40
59493;BME280;45497;43.996;22.876;2022-09-29T00:29:51;100070.75;;;18.55;60.37
59493;BME280;45497;43.996;22.876;2022-09-29T00:32:17;100071.22;;;18.52;60.54
59493;BME280;45497;43.996;22.876;2022-09-29T00:37:04;100063.06;;;18.47;60.37
59493;BME280;45497;43.996;22.876;2022-09-29T00:39:29;100066.72;;;18.41;60.15
59493;BME280;45497;43.996;22.876;2022-09-29T00:42:53;100071.97;;;18.36;60.38
59493;BME280;45497;43.996;22.876;2022-09-29T00:45:21;100071.63;;;18.32;60.48
59493;BME280;45497;43.996;22.876;2022-09-29T00:47:52;100069.41;;;18.29;60.57
59493;BME280;45497;43.996;22.876;2022-09-29T00:52:57;100064.53;;;18.26;60.72
59493;BME280;45497;43.996;22.876;2022-09-29T00:55:51;100058.00;;;18.22;60.41
59493;BME280;45497;43.996;22.876;2022-09-29T00:58:30;100060.34;;;18.18;60.24
59493;BME280;45497;43.996;22.876;2022-09-29T01:03:03;100059.53;;;18.18;60.26
59493;BME280;45497;43.996;22.876;2022-09-29T01:06:50;100064.44;;;18.21;60.21
59493;BME280;45497;43.996;22.876;2022-09-29T01:09:55;100047.66;;;18.13;60.10
59493;BME280;45497;43.996;22.876;2022-09-29T01:12:21;100056.16;;;18.10;60.02
59493;BME280;45497;43.996;22.876;2022-09-29T01:14:48;100054.16;;;18.06;60.07
59493;BME280;45497;43.996;22.876;2022-09-29T01:17:50;100044.97;;;18.02;60.15
59493;BME280;45497;43.996;22.876;2022-09-29T01:27:21;100041.13;;;17.98;60.08
59493;BME280;45497;43.996;22.876;2022-09-29T01:35:24;100045.22;;;18.00;60.30
59493;BME280;45497;43.996;22.876;2022-09-29T01:44:47;100059.69;;;17.99;59.77
59493;BME280;45497;43.996;22.876;2022-09-29T01:47:26;100064.69;;;17.95;59.66
59493;BME280;45497;43.996;22.876;2022-09-29T01:49:58;100073.78;;;17.94;59.14
59493;BME280;45497;43.996;22.876;2022-09-29T01:52:28;100067.84;;;17.92;59.34
59493;BME280;45497;43.996;22.876;2022-09-29T01:54:59;100079.72;;;17.96;59.42
59493;BME280;45497;43.996;22.876;2022-09-29T01:58:31;100067.38;;;17.95;59.31
59493;BME280;45497;43.996;22.876;2022-09-29T02:01:05;100066.31;;;17.96;59.27
59493;BME280;45497;43.996;22.876;2022-09-29T02:03:52;100070.06;;;17.95;59.44
59493;BME280;45497;43.996;22.876;2022-09-29T02:06:29;100069.72;;;17.92;59.41
59493;BME280;45497;43.996;22.876;2022-09-29T02:09:02;100064.81;;;17.89;59.52
59493;BME280;45497;43.996;22.876;2022-09-29T02:13:02;100069.94;;;17.90;59.51
59493;BME280;45497;43.996;22.876;2022-09-29T02:15:33;100065.03;;;17.87;59.91
59493;BME280;45497;43.996;22.876;2022-09-29T02:18:17;100071.22;;;17.88;59.85
59493;BME280;45497;43.996;22.876;2022-09-29T02:20:45;100078.56;;;17.92;59.79
59493;BME280;45497;43.996;22.876;2022-09-29T02:23:11;100075.31;;;17.90;59.78
59493;BME280;45497;43.996;22.876;2022-09-29T02:25:39;100072.63;;;17.90;59.74
59493;BME280;45497;43.996;22.876;2022-09-29T02:28:05;100074.25;;;17.91;59.83
59493;BME280;45497;43.996;22.876;2022-09-29T02:30:32;100079.25;;;17.88;59.67
59493;BME280;45497;43.996;22.876;2022-09-29T02:32:57;100073.88;;;17.88;59.73
59493;BME280;45497;43.996;22.876;2022-09-29T02:35:23;100083.59;;;17.89;59.63
59493;BME280;45497;43.996;22.876;2022-09-29T02:38:03;100085.22;;;17.90;59.84
59493;BME280;45497;43.996;22.876;2022-09-29T02:51:52;100097.00;;;17.89;59.16
59493;BME280;45497;43.996;22.876;2022-09-29T02:54:27;100099.91;;;17.87;58.87
59493;BME280;45497;43.996;22.876;2022-09-29T02:57:15;100091.84;;;17.87;58.37
59493;BME280;45497;43.996;22.876;2022-09-29T03:00:58;100102.81;;;17.86;58.27
59493;BME280;45497;43.996;22.876;2022-09-29T03:03:24;100102.44;;;17.82;58.22
59493;BME280;45497;43.996;22.876;2022-09-29T03:10:28;100110.47;;;17.82;58.11
59493;BME280;45497;43.996;22.876;2022-09-29T03:12:54;100101.84;;;17.80;58.20
59493;BME280;45497;43.996;22.876;2022-09-29T03:15:19;100097.56;;;17.79;58.12
59493;BME280;45497;43.996;22.876;2022-09-29T03:17:45;100098.81;;;17.76;58.12
59493;BME280;45497;43.996;22.876;2022-09-29T03:20:10;100097.78;;;17.77;58.58
59493;BME280;45497;43.996;22.876;2022-09-29T03:22:36;100098.81;;;17.76;58.66
59493;BME280;45497;43.996;22.876;2022-09-29T03:26:56;100098.59;;;17.78;58.76
59493;BME280;45497;43.996;22.876;2022-09-29T03:29:21;100101.03;;;17.80;58.78
59493;BME280;45497;43.996;22.876;2022-09-29T03:31:47;100100.47;;;17.77;58.93
59493;BME280;45497;43.996;22.876;2022-09-29T03:34:12;100094.25;;;17.77;58.78
59493;BME280;45497;43.996;22.876;2022-09-29T03:36:38;100096.59;;;17.73;58.51
59493;BME280;45497;43.996;22.876;2022-09-29T03:39:05;100098.47;;;17.73;58.34
59493;BME280;45497;43.996;22.876;2022-09-29T03:41:31;100092.75;;;17.69;58.41
59493;BME280;45497;43.996;22.876;2022-09-29T03:43:56;100093.81;;;17.68;58.53
59493;BME280;45497;43.996;22.876;2022-09-29T03:46:22;100083.56;;;17.65;58.78
59493;BME280;45497;43.996;22.876;2022-09-29T03:51:16;100095.06;;;17.66;58.78
59493;BME280;45497;43.996;22.876;2022-09-29T03:54:16;100096.16;;;17.65;58.61
59493;BME280;45497;43.996;22.876;2022-09-29T03:56:42;100099.41;;;17.67;58.40
59493;BME280;45497;43.996;22.876;2022-09-29T04:01:00;100111.97;;;17.66;58.60
59493;BME280;45497;43.996;22.876;2022-09-29T04:03:27;100106.59;;;17.66;58.54
59493;BME280;45497;43.996;22.876;2022-09-29T04:06:50;100102.09;;;17.67;58.68
59493;BME280;45497;43.996;22.876;2022-09-29T04:09:16;100096.72;;;17.67;58.75
59493;BME280;45497;43.996;22.876;2022-09-29T04:11:41;100089.13;;;17.64;58.73
59493;BME280;45497;43.996;22.876;2022-09-29T04:14:07;100088.78;;;17.60;58.87
59493;BME280;45497;43.996;22.876;2022-09-29T04:16:32;100089.25;;;17.57;58.71
59493;BME280;45497;43.996;22.876;2022-09-29T04:19:33;100105.91;;;17.59;58.48
59493;BME280;45497;43.996;22.876;2022-09-29T04:21:59;100103.47;;;17.57;58.30
59493;BME280;45497;43.996;22.876;2022-09-29T04:24:24;100107.19;;;17.56;58.23
59493;BME280;45497;43.996;22.876;2022-09-29T04:26:50;100093.44;;;17.53;58.23
59493;BME280;45497;43.996;22.876;2022-09-29T04:29:15;100099.59;;;17.53;58.30
59493;BME280;45497;43.996;22.876;2022-09-29T04:31:41;100099.59;;;17.53;58.17
59493;BME280;45497;43.996;22.876;2022-09-29T04:34:06;100097.41;;;17.50;58.15
59493;BME280;45497;43.996;22.876;2022-09-29T04:36:32;100104.38;;;17.51;58.25
59493;BME280;45497;43.996;22.876;2022-09-29T04:38:57;100095.53;;;17.51;58.24
59493;BME280;45497;43.996;22.876;2022-09-29T04:41:23;100103.56;;;17.51;58.34
59493;BME280;45497;43.996;22.876;2022-09-29T04:43:48;100111.97;;;17.54;58.16
59493;BME280;45497;43.996;22.876;2022-09-29T04:46:14;100107.63;;;17.53;58.26
59493;BME280;45497;43.996;22.876;2022-09-29T04:48:39;100101.47;;;17.53;58.27
59493;BME280;45497;43.996;22.876;2022-09-29T04:51:05;100098.91;;;17.58;58.28
59493;BME280;45497;43.996;22.876;2022-09-29T04:53:32;100092.28;;;17.61;58.19
59493;BME280;45497;43.996;22.876;2022-09-29T04:55:58;100107.44;;;17.67;57.85
59493;BME280;45497;43.996;22.876;2022-09-29T04:58:24;100102.44;;;17.70;57.77
59493;BME280;45497;43.996;22.876;2022-09-29T05:00:49;100112.97;;;17.95;57.39
59493;BME280;45497;43.996;22.876;2022-09-29T05:03:15;100105.72;;;18.20;56.81
59493;BME280;45497;43.996;22.876;2022-09-29T05:05:40;100104.66;;;18.21;56.80
59493;BME280;45497;43.996;22.876;2022-09-29T05:09:26;100110.19;;;18.54;56.58
59493;BME280;45497;43.996;22.876;2022-09-29T05:11:51;100105.56;;;18.79;56.59
59493;BME280;45497;43.996;22.876;2022-09-29T05:14:17;100090.75;;;18.88;55.74
59493;BME280;45497;43.996;22.876;2022-09-29T05:16:42;100101.34;;;18.95;55.56
59493;BME280;45497;43.996;22.876;2022-09-29T05:19:08;100107.88;;;18.87;55.78
59493;BME280;45497;43.996;22.876;2022-09-29T05:21:35;100112.78;;;18.90;56.23
59493;BME280;45497;43.996;22.876;2022-09-29T05:24:00;100113.47;;;18.97;56.31
59493;BME280;45497;43.996;22.876;2022-09-29T05:26:26;100110.16;;;19.07;56.24
59493;BME280;45497;43.996;22.876;2022-09-29T05:28:52;100106.31;;;19.03;56.36
59493;BME280;45497;43.996;22.876;2022-09-29T05:31:17;100116.59;;;19.06;56.21
59493;BME280;45497;43.996;22.876;2022-09-29T05:33:43;100111.44;;;19.04;56.22
59493;BME280;45497;43.996;22.876;2022-09-29T05:36:10;100123.44;;;19.14;56.43
59493;BME280;45497;43.996;22.876;2022-09-29T05:38:37;100117.59;;;19.17;56.18
59493;BME280;45497;43.996;22.876;2022-09-29T05:41:07;100127.00;;;19.19;56.23
59493;BME280;45497;43.996;22.876;2022-09-29T05:43:34;100132.72;;;19.23;56.19
59493;BME280;45497;43.996;22.876;2022-09-29T05:48:23;100130.00;;;19.35;56.54
59493;BME280;45497;43.996;22.876;2022-09-29T05:50:49;100132.53;;;19.41;56.26
59493;BME280;45497;43.996;22.876;2022-09-29T05:53:15;100143.53;;;19.40;56.09
59493;BME280;45497;43.996;22.876;2022-09-29T05:55:40;100140.75;;;19.35;56.12
59493;BME280;45497;43.996;22.876;2022-09-29T05:58:06;100149.03;;;19.33;56.28
59493;BME280;45497;43.996;22.876;2022-09-29T06:00:32;100150.34;;;19.31;56.37
59493;BME280;45497;43.996;22.876;2022-09-29T06:03:00;100159.47;;;19.29;56.42
59493;BME280;45497;43.996;22.876;2022-09-29T06:05:27;100170.53;;;19.33;56.48
59493;BME280;45497;43.996;22.876;2022-09-29T06:07:53;100177.22;;;19.31;56.55
59493;BME280;45497;43.996;22.876;2022-09-29T06:10:20;100190.66;;;19.31;56.41
59493;BME280;45497;43.996;22.876;2022-09-29T06:12:46;100192.19;;;19.26;56.78
59493;BME280;45497;43.996;22.876;2022-09-29T06:15:12;100181.69;;;19.25;57.10
59493;BME280;45497;43.996;22.876;2022-09-29T06:17:38;100177.25;;;19.19;57.08
59493;BME280;45497;43.996;22.876;2022-09-29T06:20:04;100177.56;;;19.05;57.47
59493;BME280;45497;43.996;22.876;2022-09-29T06:22:31;100181.06;;;19.06;57.73
59493;BME280;45497;43.996;22.876;2022-09-29T06:24:57;100179.16;;;19.06;58.15
59493;BME280;45497;43.996;22.876;2022-09-29T06:28:40;100155.78;;;18.78;59.42
59493;BME280;45497;43.996;22.876;2022-09-29T06:31:09;100155.09;;;18.71;59.82
59493;BME280;45497;43.996;22.876;2022-09-29T06:33:35;100158.22;;;18.80;59.90
59493;BME280;45497;43.996;22.876;2022-09-29T06:36:07;100158.56;;;18.83;59.82
59493;BME280;45497;43.996;22.876;2022-09-29T06:38:51;100164.56;;;18.85;60.09
59493;BME280;45497;43.996;22.876;2022-09-29T06:41:17;100161.88;;;18.85;60.25
59493;BME280;45497;43.996;22.876;2022-09-29T06:43:43;100159.25;;;18.90;60.64
59493;BME280;45497;43.996;22.876;2022-09-29T06:46:09;100170.78;;;19.03;60.93
59493;BME280;45497;43.996;22.876;2022-09-29T06:48:34;100164.81;;;19.13;60.98
59493;BME280;45497;43.996;22.876;2022-09-29T06:50:59;100172.69;;;19.19;61.18
59493;BME280;45497;43.996;22.876;2022-09-29T06:53:25;100176.78;;;19.22;61.19
59493;BME280;45497;43.996;22.876;2022-09-29T06:57:09;100185.53;;;19.29;61.09
59493;BME280;45497;43.996;22.876;2022-09-29T06:59:34;100190.66;;;19.31;61.15
59493;BME280;45497;43.996;22.876;2022-09-29T07:02:00;100202.88;;;19.38;61.05
59493;BME280;45497;43.996;22.876;2022-09-29T07:04:26;100213.31;;;19.35;61.08
59493;BME280;45497;43.996;22.876;2022-09-29T07:06:52;100223.25;;;19.34;61.29
59493;BME280;45497;43.996;22.876;2022-09-29T07:09:18;100215.53;;;19.38;61.05
59493;BME280;45497;43.996;22.876;2022-09-29T07:11:47;100220.38;;;19.41;61.08
59493;BME280;45497;43.996;22.876;2022-09-29T07:14:13;100235.81;;;19.45;61.11
59493;BME280;45497;43.996;22.876;2022-09-29T07:16:39;100230.66;;;19.44;60.98
59493;BME280;45497;43.996;22.876;2022-09-29T07:19:04;100238.84;;;19.49;61.08
59493;BME280;45497;43.996;22.876;2022-09-29T07:21:30;100241.28;;;19.51;61.04
59493;BME280;45497;43.996;22.876;2022-09-29T07:23:55;100250.50;;;19.55;60.96
59493;BME280;45497;43.996;22.876;2022-09-29T07:26:21;100252.94;;;19.56;61.11
59493;BME280;45497;43.996;22.876;2022-09-29T07:28:47;100258.31;;;19.56;61.17
59493;BME280;45497;43.996;22.876;2022-09-29T07:31:15;100265.91;;;19.59;61.35
59493;BME280;45497;43.996;22.876;2022-09-29T07:33:45;100271.88;;;19.61;61.29
59493;BME280;45497;43.996;22.876;2022-09-29T07:36:12;100274.78;;;19.60;61.48
59493;BME280;45497;43.996;22.876;2022-09-29T07:38:38;100273.75;;;19.61;61.80
59493;BME280;45497;43.996;22.876;2022-09-29T07:41:09;100294.75;;;19.64;61.63
59493;BME280;45497;43.996;22.876;2022-09-29T07:43:36;100300.47;;;19.67;61.60
59493;BME280;45497;43.996;22.876;2022-09-29T07:47:00;100299.66;;;19.67;61.84
59493;BME280;45497;43.996;22.876;2022-09-29T07:49:25;100285.75;;;19.70;61.94
59493;BME280;45497;43.996;22.876;2022-09-29T07:51:51;100291.69;;;19.72;61.96
59493;BME280;45497;43.996;22.876;2022-09-29T07:54:16;100301.16;;;19.75;62.46
59493;BME280;45497;43.996;22.876;2022-09-29T07:56:42;100287.25;;;19.78;62.53
59493;BME280;45497;43.996;22.876;2022-09-29T07:59:09;100285.47;;;19.83;62.74
59493;BME280;45497;43.996;22.876;2022-09-29T08:01:35;100279.84;;;19.85;62.77
59493;BME280;45497;43.996;22.876;2022-09-29T08:04:01;100283.59;;;19.84;62.14
59493;BME280;45497;43.996;22.876;2022-09-29T08:06:27;100279.84;;;19.85;61.54
59493;BME280;45497;43.996;22.876;2022-09-29T08:08:53;100285.00;;;19.86;61.90
59493;BME280;45497;43.996;22.876;2022-09-29T08:11:20;100282.53;;;19.85;62.28
59493;BME280;45497;43.996;22.876;2022-09-29T08:13:47;100281.78;;;19.90;62.14
59493;BME280;45497;43.996;22.876;2022-09-29T08:16:13;100293.72;;;19.94;61.92
59493;BME280;45497;43.996;22.876;2022-09-29T08:20:05;100281.66;;;19.96;62.16
59493;BME280;45497;43.996;22.876;2022-09-29T08:22:30;100282.72;;;19.95;61.79
59493;BME280;45497;43.996;22.876;2022-09-29T08:24:56;100276.03;;;19.98;62.14
59493;BME280;45497;43.996;22.876;2022-09-29T08:27:23;100270.75;;;20.03;62.24
59493;BME280;45497;43.996;22.876;2022-09-29T08:29:49;100266.63;;;20.00;62.34
59493;BME280;45497;43.996;22.876;2022-09-29T08:32:14;100262.56;;;19.98;62.18
59493;BME280;45497;43.996;22.876;2022-09-29T08:36:20;100260.22;;;20.01;62.23
59493;BME280;45497;43.996;22.876;2022-09-29T08:38:50;100266.34;;;20.14;62.52
59493;BME280;45497;43.996;22.876;2022-09-29T08:44:02;100265.19;;;20.27;61.38
59493;BME280;45497;43.996;22.876;2022-09-29T08:46:58;100269.59;;;20.33;61.74
59493;BME280;45497;43.996;22.876;2022-09-29T08:49:36;100271.22;;;20.34;61.38
59493;BME280;45497;43.996;22.876;2022-09-29T08:52:13;100277.41;;;20.34;61.25
59493;BME280;45497;43.996;22.876;2022-09-29T08:54:42;100260.69;;;20.32;61.57
59493;BME280;45497;43.996;22.876;2022-09-29T08:57:13;100268.06;;;20.37;61.36
59493;BME280;45497;43.996;22.876;2022-09-29T08:59:42;100269.75;;;20.43;61.57
59493;BME280;45497;43.996;22.876;2022-09-29T09:08:56;100264.16;;;20.28;61.03
59493;BME280;45497;43.996;22.876;2022-09-29T09:20:31;100257.41;;;20.47;61.27
59493;BME280;45497;43.996;22.876;2022-09-29T09:23:21;100266.13;;;20.54;61.12
59493;BME280;45497;43.996;22.876;2022-09-29T09:25:53;100265.75;;;20.46;59.96
59493;BME280;45497;43.996;22.876;2022-09-29T09:28:30;100271.06;;;20.40;59.95
59493;BME280;45497;43.996;22.876;2022-09-29T09:31:00;100270.41;;;20.50;60.28
59493;BME280;45497;43.996;22.876;2022-09-29T09:33:40;100281.69;;;20.64;60.40
59493;BME280;45497;43.996;22.876;2022-09-29T09:36:08;100279.63;;;20.71;60.61
59493;BME280;45497;43.996;22.876;2022-09-29T09:38:59;100288.66;;;20.82;60.56
59493;BME280;45497;43.996;22.876;2022-09-29T09:41:27;100294.44;;;20.91;60.28
59493;BME280;45497;43.996;22.876;2022-09-29T09:44:00;100286.34;;;20.91;60.05
59493;BME280;45497;43.996;22.876;2022-09-29T09:46:36;100292.06;;;20.94;60.33
59493;BME280;45497;43.996;22.876;2022-09-29T09:49:06;100293.91;;;20.94;59.95
59493;BME280;45497;43.996;22.876;2022-09-29T09:51:51;100282.50;;;20.87;59.53
59493;BME280;45497;43.996;22.876;2022-09-29T09:54:58;100283.09;;;20.89;60.29
59493;BME280;45497;43.996;22.876;2022-09-29T10:00:12;100286.75;;;20.99;59.66
59493;BME280;45497;43.996;22.876;2022-09-29T10:02:44;100290.81;;;21.02;59.77
59493;BME280;45497;43.996;22.876;2022-09-29T10:05:13;100303.25;;;21.03;59.24
59493;BME280;45497;43.996;22.876;2022-09-29T10:07:39;100296.75;;;21.04;58.95
59493;BME280;45497;43.996;22.876;2022-09-29T10:10:17;100295.09;;;20.98;59.47
59493;BME280;45497;43.996;22.876;2022-09-29T10:12:43;100310.72;;;21.01;59.74
59493;BME280;45497;43.996;22.876;2022-09-29T10:17:44;100317.59;;;21.09;59.91
59493;BME280;45497;43.996;22.876;2022-09-29T10:20:11;100311.56;;;21.02;60.16
59493;BME280;45497;43.996;22.876;2022-09-29T10:22:37;100314.31;;;21.07;60.28
59493;BME280;45497;43.996;22.876;2022-09-29T10:25:15;100318.50;;;20.97;59.73
59493;BME280;45497;43.996;22.876;2022-09-29T10:27:45;100316.19;;;21.06;59.92
59493;BME280;45497;43.996;22.876;2022-09-29T10:30:34;100305.47;;;21.11;59.79
59493;BME280;45497;43.996;22.876;2022-09-29T10:33:02;100317.63;;;21.14;60.51
59493;BME280;45497;43.996;22.876;2022-09-29T10:35:36;100320.28;;;21.09;59.84
59493;BME280;45497;43.996;22.876;2022-09-29T10:38:07;100302.16;;;21.04;59.67
59493;BME280;45497;43.996;22.876;2022-09-29T10:40:34;100294.22;;;21.14;59.18
59493;BME280;45497;43.996;22.876;2022-09-29T10:43:21;100305.22;;;21.35;59.14
59493;BME280;45497;43.996;22.876;2022-09-29T10:45:48;100293.13;;;21.37;59.06
59493;BME280;45497;43.996;22.876;2022-09-29T10:48:14;100290.22;;;21.44;59.76
59493;BME280;45497;43.996;22.876;2022-09-29T10:50:52;100286.72;;;21.44;59.85
59493;BME280;45497;43.996;22.876;2022-09-29T10:53:33;100292.44;;;21.25;59.59
59493;BME280;45497;43.996;22.876;2022-09-29T10:55:59;100288.03;;;21.19;59.61
59493;BME280;45497;43.996;22.876;2022-09-29T11:03:38;100285.56;;;21.12;60.59
59493;BME280;45497;43.996;22.876;2022-09-29T11:06:08;100277.03;;;21.20;60.41
59493;BME280;45497;43.996;22.876;2022-09-29T11:08:56;100278.19;;;21.30;60.18
59493;BME280;45497;43.996;22.876;2022-09-29T11:12:10;100282.03;;;21.34;60.48
59493;BME280;45497;43.996;22.876;2022-09-29T11:17:18;100286.75;;;21.22;60.94
59493;BME280;45497;43.996;22.876;2022-09-29T11:44:31;100292.34;;;21.64;59.85
59493;BME280;45497;43.996;22.876;2022-09-29T11:53:04;100290.34;;;21.76;60.86
59493;BME280;45497;43.996;22.876;2022-09-29T11:55:52;100290.13;;;21.83;61.14
59493;BME280;45497;43.996;22.876;2022-09-29T12:01:43;100277.50;;;21.89;60.64
59493;BME280;45497;43.996;22.876;2022-09-29T12:04:37;100291.19;;;21.82;59.79
59493;BME280;45497;43.996;22.876;2022-09-29T12:07:37;100283.69;;;21.84;60.32
59493;BME280;45497;43.996;22.876;2022-09-29T12:10:31;100287.28;;;21.95;59.34
59493;BME280;45497;43.996;22.876;2022-09-29T12:21:14;100273.13;;;21.83;58.85
59493;BME280;45497;43.996;22.876;2022-09-29T12:24:15;100281.06;;;21.67;59.04
59493;BME280;45497;43.996;22.876;2022-09-29T12:26:44;100275.94;;;21.66;59.24
59493;BME280;45497;43.996;22.876;2022-09-29T12:37:04;100264.00;;;21.89;59.16
59493;BME280;45497;43.996;22.876;2022-09-29T12:39:32;100265.34;;;21.86;58.93
59493;BME280;45497;43.996;22.876;2022-09-29T12:42:24;100266.09;;;21.82;59.35
59493;BME280;45497;43.996;22.876;2022-09-29T12:45:05;100272.88;;;21.84;59.52
59493;BME280;45497;43.996;22.876;2022-09-29T12:50:32;100286.00;;;22.03;59.52
59493;BME280;45497;43.996;22.876;2022-09-29T12:58:30;100274.22;;;22.14;58.19
59493;BME280;45497;43.996;22.876;2022-09-29T13:01:22;100277.75;;;22.20;58.29
59493;BME280;45497;43.996;22.876;2022-09-29T13:09:57;100265.84;;;22.15;57.32
59493;BME280;45497;43.996;22.876;2022-09-29T13:18:10;100257.97;;;22.09;57.38
59493;BME280;45497;43.996;22.876;2022-09-29T13:32:04;100260.72;;;22.14;57.29
59493;BME280;45497;43.996;22.876;2022-09-29T13:34:36;100260.16;;;22.12;57.50
59493;BME280;45497;43.996;22.876;2022-09-29T13:39:25;100271.25;;;22.15;57.16
59493;BME280;45497;43.996;22.876;2022-09-29T13:41:53;100277.50;;;22.21;57.13
59493;BME280;45497;43.996;22.876;2022-09-29T13:44:27;100276.53;;;22.27;57.32
59493;BME280;45497;43.996;22.876;2022-09-29T13:46:54;100272.91;;;22.22;56.84
59493;BME280;45497;43.996;22.876;2022-09-29T13:54:42;100271.19;;;22.38;56.73
59493;BME280;45497;43.996;22.876;2022-09-29T13:59:37;100277.31;;;22.28;56.69
59493;BME280;45497;43.996;22.876;2022-09-29T14:02:24;100277.00;;;22.24;56.43
59493;BME280;45497;43.996;22.876;2022-09-29T14:04:53;100280.84;;;22.28;56.50
59493;BME280;45497;43.996;22.876;2022-09-29T14:07:45;100275.34;;;22.23;57.21
59493;BME280;45497;43.996;22.876;2022-09-29T14:12:39;100267.25;;;22.23;57.72
59493;BME280;45497;43.996;22.876;2022-09-29T14:15:06;100284.00;;;22.25;58.00
59493;BME280;45497;43.996;22.876;2022-09-29T14:19:24;100277.63;;;22.31;58.21
59493;BME280;45497;43.996;22.876;2022-09-29T14:21:57;100274.03;;;22.26;58.75
59493;BME280;45497;43.996;22.876;2022-09-29T14:27:26;100269.09;;;22.18;58.97
59493;BME280;45497;43.996;22.876;2022-09-29T14:35:30;100278.28;;;22.17;59.44
59493;BME280;45497;43.996;22.876;2022-09-29T14:38:23;100281.00;;;22.17;59.52
59493;BME280;45497;43.996;22.876;2022-09-29T14:41:26;100280.72;;;22.18;59.18
59493;BME280;45497;43.996;22.876;2022-09-29T14:43:54;100282.25;;;22.09;58.84
59493;BME280;45497;43.996;22.876;2022-09-29T14:52:39;100280.94;;;22.11;57.67
59493;BME280;45497;43.996;22.876;2022-09-29T15:03:14;100273.50;;;21.96;57.34
59493;BME280;45497;43.996;22.876;2022-09-29T15:05:42;100277.84;;;21.98;57.17
59493;BME280;45497;43.996;22.876;2022-09-29T15:08:24;100278.59;;;21.93;57.30
59493;BME280;45497;43.996;22.876;2022-09-29T15:10:51;100271.91;;;21.95;57.04
59493;BME280;45497;43.996;22.876;2022-09-29T15:13:27;100271.59;;;21.92;57.07
59493;BME280;45497;43.996;22.876;2022-09-29T15:17:01;100283.44;;;21.91;57.13
59493;BME280;45497;43.996;22.876;2022-09-29T15:29:05;100283.06;;;21.77;57.07
59493;BME280;45497;43.996;22.876;2022-09-29T15:31:32;100287.31;;;21.73;57.04
59493;BME280;45497;43.996;22.876;2022-09-29T15:33:58;100281.94;;;21.73;57.01
59493;BME280;45497;43.996;22.876;2022-09-29T15:36:28;100285.47;;;21.73;56.30
59493;BME280;45497;43.996;22.876;2022-09-29T15:39:04;100280.63;;;21.75;56.66
59493;BME280;45497;43.996;22.876;2022-09-29T15:43:22;100279.59;;;21.82;57.04
59493;BME280;45497;43.996;22.876;2022-09-29T15:45:58;100280.94;;;21.79;57.25
59493;BME280;45497;43.996;22.876;2022-09-29T15:48:29;100276.59;;;21.78;56.82
59493;BME280;45497;43.996;22.876;2022-09-29T15:52:51;100277.97;;;21.81;57.40
59493;BME280;45497;43.996;22.876;2022-09-29T15:55:19;100280.94;;;21.79;57.34
59493;BME280;45497;43.996;22.876;2022-09-29T15:57:50;100273.91;;;21.78;57.98
59493;BME280;45497;43.996;22.876;2022-09-29T16:05:19;100283.03;;;21.72;58.69
59493;BME280;45497;43.996;22.876;2022-09-29T16:07:59;100271.31;;;21.61;58.03
59493;BME280;45497;43.996;22.876;2022-09-29T16:11:21;100280.72;;;21.58;57.94
59493;BME280;45497;43.996;22.876;2022-09-29T16:13:56;100272.06;;;21.56;58.40
59493;BME280;45497;43.996;22.876;2022-09-29T16:16:32;100280.09;;;21.51;58.48
59493;BME280;45497;43.996;22.876;2022-09-29T16:19:07;100276.59;;;21.51;58.54
59493;BME280;45497;43.996;22.876;2022-09-29T16:21:36;100283.34;;;21.53;58.65
59493;BME280;45497;43.996;22.876;2022-09-29T16:24:15;100283.56;;;21.47;58.52
59493;BME280;45497;43.996;22.876;2022-09-29T16:26:48;100290.81;;;21.46;58.27
59493;BME280;45497;43.996;22.876;2022-09-29T16:33:56;100294.13;;;21.31;59.09
59493;BME280;45497;43.996;22.876;2022-09-29T16:36:29;100292.75;;;21.29;58.95
59493;BME280;45497;43.996;22.876;2022-09-29T16:39:02;100289.69;;;21.20;59.23
59493;BME280;45497;43.996;22.876;2022-09-29T16:41:34;100302.28;;;21.14;59.79
59493;BME280;45497;43.996;22.876;2022-09-29T16:44:23;100303.03;;;21.10;60.03
59493;BME280;45497;43.996;22.876;2022-09-29T16:46:56;100304.44;;;21.12;59.91
59493;BME280;45497;43.996;22.876;2022-09-29T16:51:56;100314.06;;;21.08;60.40
59493;BME280;45497;43.996;22.876;2022-09-29T16:55:36;100329.91;;;21.05;60.69
59493;BME280;45497;43.996;22.876;2022-09-29T17:00:29;100337.56;;;20.91;60.75
59493;BME280;45497;43.996;22.876;2022-09-29T17:02:55;100338.84;;;20.88;61.22
59493;BME280;45497;43.996;22.876;2022-09-29T17:07:14;100347.59;;;20.78;61.43
59493;BME280;45497;43.996;22.876;2022-09-29T17:09:43;100340.25;;;20.74;61.50
59493;BME280;45497;43.996;22.876;2022-09-29T17:12:13;100346.47;;;20.74;61.43